Mount Enterprise, Texas
Current Conditions -  °F | °C
As of 7:35 AM on Saturday 20 Dec 2014 (Local Time) from KRFI Reporting Station
Overcast Overcast  
Wind Chill: 42°   Ceiling: 600
Heat Index: 46°   Visibility: 7mi
Dew Point: 45°   Wind: 6mph
Humidity: 97%   Direction: 40°NE
Pressure: 30.24"   Gusts: NA
Location:  31.92°N, 94.68°W
Report Text: KRFI 201335Z AUTO 04005KT 7SM OVC006 08/07 A3024 RMK AO2 T00750070
Loading
Personal Weather Stations






























Interactive Weather Map New forecast layout! Learn more

10-Day Weather Forecast

Advertisements
Track Severe Weather on mobile